Time;durP1;ratioP1;P1;durP2;ratioP2;P2;SDS_P1;SDS_P2;PMS_P1;PMS_P2;Temp;Humidity;BMP_temperature;BMP_pressure;BME280_temperature;BME280_humidity;BME280_pressure;Samples;Min_cycle;Max_cycle;Signal;HPM_P1;HPM_P2
2022/11/27 00:00:42;;;;;;;38.83;16.97;;;5.90;99.90;;;;;;4966614;28;20232;-79
2022/11/27 00:03:09;;;;;;;39.70;17.00;;;5.80;99.90;;;;;;4963610;28;20288;-78
2022/11/27 00:05:36;;;;;;;35.60;15.60;;;5.80;99.90;;;;;;4959620;28;20687;-78
2022/11/27 00:08:03;;;;;;;36.23;16.57;;;5.70;99.90;;;;;;4913926;28;20223;-78
2022/11/27 00:10:31;;;;;;;32.50;16.70;;;5.70;99.90;;;;;;5007775;28;20245;-78
2022/11/27 00:12:59;;;;;;;37.70;16.30;;;5.70;99.90;;;;;;5001532;28;20709;-78
2022/11/27 00:15:26;;;;;;;32.67;16.00;;;5.60;99.90;;;;;;5004972;28;20231;-78
2022/11/27 00:17:53;;;;;;;34.87;16.20;;;5.60;99.90;;;;;;4966265;28;20259;-81
2022/11/27 00:20:22;;;;;;;32.40;15.50;;;5.60;99.90;;;;;;4934815;28;20369;-81
2022/11/27 00:22:48;;;;;;;30.90;15.20;;;5.50;99.90;;;;;;4976550;28;20247;-80
2022/11/27 00:25:18;;;;;;;29.70;14.67;;;5.50;99.90;;;;;;4966913;28;20228;-81
2022/11/27 00:27:46;;;;;;;44.47;16.70;;;5.50;99.90;;;;;;4949758;28;20717;-80
2022/11/27 00:30:15;;;;;;;26.77;15.10;;;5.40;99.90;;;;;;4946952;28;20229;-79
2022/11/27 00:32:42;;;;;;;44.03;16.60;;;5.40;99.90;;;;;;4929220;28;20273;-78
2022/11/27 00:35:09;;;;;;;30.53;15.77;;;5.40;99.90;;;;;;4921791;28;20232;-79
2022/11/27 00:37:36;;;;;;;33.30;14.97;;;5.40;99.90;;;;;;5020245;28;20243;-79
2022/11/27 00:40:03;;;;;;;31.43;15.37;;;5.30;99.90;;;;;;5004674;28;20253;-79
2022/11/27 00:42:30;;;;;;;36.30;15.30;;;5.30;99.90;;;;;;4948827;28;21800;-79
2022/11/27 00:44:58;;;;;;;38.87;15.67;;;5.20;99.90;;;;;;4982130;28;20219;-78
2022/11/27 00:47:27;;;;;;;40.43;16.70;;;5.20;99.90;;;;;;5002827;28;20620;-78
2022/11/27 00:49:54;;;;;;;34.53;15.30;;;5.20;99.90;;;;;;5020113;28;20704;-79
2022/11/27 00:52:21;;;;;;;30.37;14.20;;;5.10;99.90;;;;;;4991721;28;20286;-79
2022/11/27 00:54:48;;;;;;;31.60;15.27;;;5.10;99.90;;;;;;4977172;28;20274;-79
2022/11/27 00:57:15;;;;;;;33.60;14.90;;;5.10;99.90;;;;;;4964914;28;20317;-77
2022/11/27 00:59:41;;;;;;;29.30;14.57;;;5.00;99.90;;;;;;4945813;28;20227;-78
2022/11/27 01:02:11;;;;;;;32.50;15.13;;;5.00;99.90;;;;;;5001000;28;20227;-78
2022/11/27 01:04:44;;;;;;;28.07;14.97;;;5.00;99.90;;;;;;4982732;28;20256;-78
2022/11/27 01:07:11;;;;;;;34.27;15.03;;;5.00;99.90;;;;;;5008483;28;20222;-77
2022/11/27 01:09:46;;;;;;;33.30;14.37;;;5.00;99.90;;;;;;4967615;28;20400;-78
2022/11/27 01:12:13;;;;;;;31.93;14.77;;;5.00;99.90;;;;;;4955472;28;20703;-79
2022/11/27 01:14:40;;;;;;;32.63;15.17;;;5.00;99.90;;;;;;4951822;28;20635;-79
2022/11/27 01:17:07;;;;;;;36.07;15.13;;;5.10;99.90;;;;;;5003227;28;20223;-79
2022/11/27 01:19:35;;;;;;;32.63;14.57;;;5.10;99.90;;;;;;5004232;28;20231;-78
2022/11/27 01:22:02;;;;;;;30.33;14.07;;;5.10;99.90;;;;;;5007197;28;20242;-79
2022/11/27 01:24:28;;;;;;;31.00;15.63;;;5.20;99.90;;;;;;5004883;28;20325;-79
2022/11/27 01:26:55;;;;;;;31.60;14.93;;;5.20;99.90;;;;;;5007867;28;20224;-77
2022/11/27 01:29:22;;;;;;;31.07;15.40;;;5.20;99.90;;;;;;4949058;28;20227;-77
2022/11/27 01:31:49;;;;;;;25.17;14.00;;;5.20;99.90;;;;;;4980791;28;20226;-79
2022/11/27 01:34:17;;;;;;;36.83;15.10;;;5.20;99.90;;;;;;4992997;28;20265;-79
2022/11/27 01:36:48;;;;;;;27.97;14.47;;;5.30;99.90;;;;;;4945643;28;20226;-79
2022/11/27 01:39:17;;;;;;;26.30;14.07;;;5.20;99.90;;;;;;4926649;28;20314;-77
2022/11/27 01:41:45;;;;;;;40.57;15.33;;;5.20;99.90;;;;;;4945669;28;20228;-78
2022/11/27 01:44:51;;;;;;;29.53;13.90;;;5.20;99.90;;;;;;4957631;28;20231;-78
2022/11/27 01:47:32;;;;;;;30.80;13.07;;;5.00;99.90;;;;;;4926608;28;20245;-78
2022/11/27 01:50:09;;;;;;;31.50;13.23;;;5.10;99.90;;;;;;4935219;28;20240;-78
2022/11/27 01:52:40;;;;;;;22.23;12.20;;;5.00;99.90;;;;;;5008060;28;20237;-77
2022/11/27 01:55:12;;;;;;;32.50;13.27;;;4.90;99.90;;;;;;4923354;28;20225;-77
2022/11/27 01:57:43;;;;;;;24.13;10.80;;;4.90;99.90;;;;;;5003699;28;20238;-78
2022/11/27 02:00:14;;;;;;;22.93;11.80;;;4.80;99.90;;;;;;5005884;28;20262;-77
2022/11/27 02:02:41;;;;;;;29.40;11.50;;;4.80;99.90;;;;;;4958644;28;20285;-78
2022/11/27 02:05:08;;;;;;;28.37;12.10;;;4.70;99.90;;;;;;4976865;28;20221;-78
2022/11/27 02:07:37;;;;;;;34.60;12.17;;;4.60;99.90;;;;;;5013623;28;20244;-78
2022/11/27 02:10:05;;;;;;;22.60;11.43;;;4.60;99.90;;;;;;5002314;28;20280;-78
2022/11/27 02:12:37;;;;;;;25.70;11.00;;;4.50;99.90;;;;;;4963970;28;20312;-77
2022/11/27 02:15:16;;;;;;;25.13;11.60;;;4.40;99.90;;;;;;4973333;28;20292;-78
2022/11/27 02:17:48;;;;;;;23.33;11.47;;;4.40;99.90;;;;;;5007619;28;20423;-77
2022/11/27 02:20:27;;;;;;;23.27;10.43;;;4.30;99.90;;;;;;4968438;28;20229;-78
2022/11/27 02:23:27;;;;;;;24.20;11.73;;;4.30;99.90;;;;;;5010815;28;20233;-78
2022/11/27 02:26:23;;;;;;;26.23;12.07;;;4.30;99.90;;;;;;4979821;28;20238;-77
2022/11/27 02:29:03;;;;;;;40.63;12.07;;;4.20;99.90;;;;;;4991579;28;20298;-78
2022/11/27 02:31:38;;;;;;;25.03;11.80;;;4.10;99.90;;;;;;4953425;28;20241;-78
2022/11/27 02:34:15;;;;;;;21.33;11.17;;;4.10;99.90;;;;;;4981066;28;20243;-78
2022/11/27 02:36:48;;;;;;;31.37;12.13;;;4.10;99.90;;;;;;5006600;28;20241;-78
2022/11/27 02:39:20;;;;;;;30.57;10.83;;;4.00;99.90;;;;;;4961390;28;20231;-78
2022/11/27 02:41:52;;;;;;;40.17;12.27;;;4.00;99.90;;;;;;4974247;28;20245;-78
2022/11/27 02:44:22;;;;;;;26.63;11.27;;;4.00;99.90;;;;;;4950238;28;20219;-78
2022/11/27 02:46:50;;;;;;;26.87;10.83;;;3.90;99.90;;;;;;4971947;28;20237;-78
2022/11/27 02:49:18;;;;;;;33.67;11.50;;;3.90;99.90;;;;;;4957873;28;20238;-77
2022/11/27 02:51:49;;;;;;;21.93;10.73;;;3.90;99.90;;;;;;4971629;28;20221;-77
2022/11/27 02:54:22;;;;;;;63.07;13.07;;;3.90;99.90;;;;;;4955346;28;20224;-78
2022/11/27 02:56:51;;;;;;;27.87;11.00;;;3.80;99.90;;;;;;4960824;28;20221;-78
2022/11/27 02:59:21;;;;;;;25.17;11.43;;;3.80;99.90;;;;;;4931853;28;20287;-77
2022/11/27 03:01:53;;;;;;;27.40;11.83;;;3.80;99.90;;;;;;4981027;28;20235;-78
2022/11/27 03:04:25;;;;;;;27.43;11.40;;;3.70;99.90;;;;;;4960123;28;20237;-76
2022/11/27 03:06:55;;;;;;;35.17;11.30;;;3.70;99.90;;;;;;5024729;28;20629;-78
2022/11/27 03:09:27;;;;;;;24.60;11.70;;;3.70;99.90;;;;;;4969632;28;20312;-77
2022/11/27 03:11:55;;;;;;;29.03;11.07;;;3.60;99.90;;;;;;5012145;28;20229;-76
2022/11/27 03:14:24;;;;;;;22.23;11.43;;;3.60;99.90;;;;;;5002522;28;20888;-77
2022/11/27 03:17:02;;;;;;;31.83;12.03;;;3.60;99.90;;;;;;4968090;28;20228;-77
2022/11/27 03:19:41;;;;;;;20.17;10.43;;;3.50;99.90;;;;;;5003806;28;20370;-77
2022/11/27 03:22:09;;;;;;;26.03;10.93;;;3.50;99.90;;;;;;4917692;28;20255;-78
2022/11/27 03:24:36;;;;;;;20.43;10.70;;;3.50;99.90;;;;;;4970919;28;20294;-77
2022/11/27 03:27:05;;;;;;;27.90;11.83;;;3.50;99.90;;;;;;4967100;28;20401;-77
2022/11/27 03:29:37;;;;;;;27.70;11.13;;;3.40;99.90;;;;;;4998872;28;20229;-77
2022/11/27 03:32:05;;;;;;;25.47;11.37;;;3.40;99.90;;;;;;5015533;28;20222;-77
2022/11/27 03:34:32;;;;;;;96.83;15.77;;;3.40;99.90;;;;;;5005965;28;20732;-77
2022/11/27 03:36:59;;;;;;;31.17;11.87;;;3.40;99.90;;;;;;4964365;28;20259;-78
2022/11/27 03:39:26;;;;;;;29.20;12.50;;;3.40;99.90;;;;;;5004097;28;20264;-77
2022/11/27 03:42:02;;;;;;;25.10;10.93;;;3.40;99.90;;;;;;4991765;28;20225;-77
2022/11/27 03:44:39;;;;;;;71.40;13.90;;;3.30;99.90;;;;;;5020545;28;20314;-78
2022/11/27 03:47:27;;;;;;;27.93;11.37;;;3.30;99.90;;;;;;4964639;28;20263;-77
2022/11/27 03:50:09;;;;;;;21.53;11.57;;;3.30;99.90;;;;;;5009245;28;20369;-78
2022/11/27 03:52:43;;;;;;;36.43;11.67;;;3.20;99.90;;;;;;4945756;28;20394;-78
2022/11/27 03:55:15;;;;;;;59.40;13.63;;;3.20;99.90;;;;;;4942444;28;20225;-77
2022/11/27 03:57:49;;;;;;;28.93;11.77;;;3.20;99.90;;;;;;5004556;28;20233;-77
2022/11/27 04:00:18;;;;;;;100.70;16.47;;;3.20;99.90;;;;;;4922243;28;20318;-76
2022/11/27 04:02:47;;;;;;;100.03;16.57;;;3.20;99.90;;;;;;4972493;28;20225;-78
2022/11/27 04:05:14;;;;;;;53.53;13.07;;;3.20;99.90;;;;;;4966846;28;20596;-78
2022/11/27 04:07:41;;;;;;;25.23;11.00;;;3.10;99.90;;;;;;5019278;28;20228;-78
2022/11/27 04:10:10;;;;;;;22.13;12.20;;;3.10;99.90;;;;;;5006285;28;20228;-77
2022/11/27 04:12:37;;;;;;;59.83;13.63;;;3.00;99.90;;;;;;5004873;28;20772;-78
2022/11/27 04:15:05;;;;;;;25.70;13.13;;;3.00;99.90;;;;;;5006600;28;20229;-77
2022/11/27 04:17:33;;;;;;;40.43;13.17;;;3.00;99.90;;;;;;4987141;28;21203;-76
2022/11/27 04:20:00;;;;;;;102.00;17.23;;;3.00;99.90;;;;;;4979348;28;20243;-77
2022/11/27 04:22:26;;;;;;;22.53;12.13;;;3.00;99.90;;;;;;4985529;28;20725;-77
2022/11/27 04:24:53;;;;;;;25.23;12.40;;;3.00;99.90;;;;;;4983572;28;20299;-78
2022/11/27 04:27:20;;;;;;;26.10;12.23;;;2.90;99.90;;;;;;5006699;28;20228;-77
2022/11/27 04:29:47;;;;;;;31.13;11.23;;;2.90;99.90;;;;;;5006915;28;20232;-78
2022/11/27 04:32:13;;;;;;;39.63;14.50;;;2.90;99.90;;;;;;4959020;28;20718;-78
2022/11/27 04:34:45;;;;;;;34.70;12.63;;;2.90;99.90;;;;;;4928535;28;20612;-77
2022/11/27 04:37:12;;;;;;;23.77;13.07;;;2.80;99.90;;;;;;4999659;28;20240;-77
2022/11/27 04:39:39;;;;;;;32.13;13.20;;;2.80;99.90;;;;;;4988847;28;20235;-77
2022/11/27 04:42:06;;;;;;;28.03;14.23;;;2.80;99.90;;;;;;4987735;28;20219;-78
2022/11/27 04:44:33;;;;;;;35.80;14.47;;;2.80;99.90;;;;;;4964518;28;20221;-77
2022/11/27 04:47:00;;;;;;;30.27;13.73;;;2.80;99.90;;;;;;4938108;28;20314;-77
2022/11/27 04:49:27;;;;;;;29.17;15.57;;;2.70;99.90;;;;;;5004925;28;20233;-77
2022/11/27 04:51:55;;;;;;;31.87;15.70;;;2.70;99.90;;;;;;4958713;28;20229;-77
2022/11/27 04:54:22;;;;;;;30.27;15.70;;;2.70;99.90;;;;;;4961038;28;20248;-76
2022/11/27 04:56:48;;;;;;;33.17;15.73;;;2.80;99.90;;;;;;4987163;28;20308;-78
2022/11/27 04:59:15;;;;;;;42.43;17.93;;;2.80;99.90;;;;;;4991324;28;20236;-80
2022/11/27 05:01:42;;;;;;;67.57;19.10;;;2.70;99.90;;;;;;4976601;28;20316;-80
2022/11/27 05:04:11;;;;;;;30.90;17.60;;;2.80;99.90;;;;;;4989544;28;20236;-79
2022/11/27 05:06:37;;;;;;;64.07;19.40;;;2.80;99.90;;;;;;4994086;28;20224;-81
2022/11/27 05:09:05;;;;;;;47.43;17.40;;;2.80;99.90;;;;;;5005381;28;20227;-77
2022/11/27 05:11:32;;;;;;;48.50;17.83;;;2.90;99.90;;;;;;4968398;28;20740;-76
2022/11/27 05:14:15;;;;;;;46.87;18.07;;;2.90;99.90;;;;;;4990809;28;20311;-77
2022/11/27 05:16:45;;;;;;;37.37;17.23;;;2.90;99.90;;;;;;4953658;28;21113;-76
2022/11/27 05:19:13;;;;;;;40.47;16.67;;;2.90;99.90;;;;;;4954414;28;20864;-77
2022/11/27 05:21:40;;;;;;;46.57;18.90;;;2.90;99.90;;;;;;5003247;28;20255;-77
2022/11/27 05:24:10;;;;;;;39.30;17.70;;;2.90;99.90;;;;;;5002932;28;20229;-77
2022/11/27 05:26:39;;;;;;;36.77;17.57;;;2.90;99.90;;;;;;5005968;28;20221;-77
2022/11/27 05:29:07;;;;;;;36.80;16.83;;;2.90;99.90;;;;;;4985064;28;20708;-77
2022/11/27 05:31:34;;;;;;;35.53;16.70;;;2.90;99.90;;;;;;4946302;28;20320;-77
2022/11/27 05:34:01;;;;;;;33.57;16.13;;;2.90;99.90;;;;;;4951361;28;20723;-75
2022/11/27 05:36:29;;;;;;;31.97;17.10;;;2.80;99.90;;;;;;4962330;28;20259;-77
2022/11/27 05:38:56;;;;;;;28.00;16.67;;;2.80;99.90;;;;;;4986501;28;20232;-76
2022/11/27 05:41:25;;;;;;;52.40;16.60;;;2.80;99.90;;;;;;5004287;28;20266;-77
2022/11/27 05:43:52;;;;;;;34.47;16.67;;;2.70;99.90;;;;;;5004886;28;20233;-76
2022/11/27 05:46:21;;;;;;;28.47;16.73;;;2.60;99.90;;;;;;5001953;28;20247;-77
2022/11/27 05:48:50;;;;;;;29.50;15.50;;;2.60;99.90;;;;;;4965368;28;20252;-77
2022/11/27 05:51:17;;;;;;;51.63;16.63;;;2.60;99.90;;;;;;4943645;28;20260;-77
2022/11/27 05:53:44;;;;;;;30.43;16.87;;;2.50;99.90;;;;;;5003794;28;20319;-76
2022/11/27 05:56:16;;;;;;;29.50;16.23;;;2.50;99.90;;;;;;5000312;28;20223;-77
2022/11/27 05:58:48;;;;;;;32.93;17.17;;;2.50;99.90;;;;;;4942271;28;20234;-77
2022/11/27 06:01:16;;;;;;;27.93;16.80;;;2.40;99.90;;;;;;4970253;28;20253;-75
2022/11/27 06:03:43;;;;;;;35.30;16.57;;;2.40;99.90;;;;;;5002104;28;20221;-76
2022/11/27 06:06:13;;;;;;;54.57;16.80;;;2.30;99.90;;;;;;4957707;28;20559;-75
2022/11/27 06:08:40;;;;;;;28.27;16.27;;;2.30;99.90;;;;;;4933872;28;20232;-77
2022/11/27 06:11:08;;;;;;;30.83;16.47;;;2.30;99.90;;;;;;5004035;28;20609;-77
2022/11/27 06:13:36;;;;;;;29.93;16.97;;;2.20;99.90;;;;;;5006082;28;20651;-77
2022/11/27 06:16:10;;;;;;;40.33;18.63;;;2.20;99.90;;;;;;5008237;28;20317;-77
2022/11/27 06:18:38;;;;;;;34.07;16.77;;;2.20;99.90;;;;;;5007177;28;20660;-76
2022/11/27 06:21:10;;;;;;;34.50;18.00;;;2.20;99.90;;;;;;5006197;28;20217;-77
2022/11/27 06:23:38;;;;;;;37.13;16.53;;;2.10;99.90;;;;;;5007609;28;20248;-76
2022/11/27 06:26:13;;;;;;;85.77;20.40;;;2.20;99.90;;;;;;5003127;28;20233;-77
2022/11/27 06:28:40;;;;;;;32.73;16.47;;;2.10;99.90;;;;;;5017660;28;20227;-77
2022/11/27 06:31:10;;;;;;;31.30;16.17;;;2.10;99.90;;;;;;5008255;28;20209;-78
2022/11/27 06:33:37;;;;;;;29.33;16.13;;;2.10;99.90;;;;;;5004988;28;20225;-78
2022/11/27 06:36:05;;;;;;;42.27;18.20;;;2.10;99.90;;;;;;5005756;28;20219;-78
2022/11/27 06:38:32;;;;;;;32.07;16.77;;;2.00;99.90;;;;;;4973185;28;20236;-78
2022/11/27 06:41:03;;;;;;;30.90;16.37;;;2.10;99.90;;;;;;4996346;28;20225;-76
2022/11/27 06:43:29;;;;;;;36.50;17.10;;;2.00;99.90;;;;;;4946815;28;20231;-76
2022/11/27 06:45:57;;;;;;;29.63;16.83;;;2.00;99.90;;;;;;4927469;28;20232;-77
2022/11/27 06:48:25;;;;;;;36.03;17.50;;;2.00;99.90;;;;;;4908513;28;20239;-79
2022/11/27 06:50:52;;;;;;;43.83;17.20;;;2.00;99.90;;;;;;4990504;28;21030;-78
2022/11/27 06:53:19;;;;;;;29.97;16.57;;;2.00;99.90;;;;;;4908106;28;20247;-79
2022/11/27 06:55:46;;;;;;;46.90;17.90;;;2.00;99.90;;;;;;5000760;28;20782;-79
2022/11/27 06:58:13;;;;;;;32.50;17.60;;;2.00;99.90;;;;;;4966615;28;20315;-79
2022/11/27 07:00:43;;;;;;;31.60;16.80;;;2.00;99.90;;;;;;4951237;28;20246;-81
2022/11/27 07:03:10;;;;;;;44.37;17.03;;;2.00;99.90;;;;;;4923469;28;20230;-81
2022/11/27 07:05:38;;;;;;;29.10;16.97;;;2.00;99.90;;;;;;4932548;28;20772;-82
2022/11/27 07:08:07;;;;;;;40.73;17.00;;;2.00;99.90;;;;;;4933785;28;20227;-84
2022/11/27 07:10:36;;;;;;;30.40;16.33;;;1.90;99.90;;;;;;4930642;28;20280;-81
2022/11/27 07:13:03;;;;;;;32.97;16.80;;;2.00;99.90;;;;;;4929833;28;20723;-83
2022/11/27 07:15:30;;;;;;;31.73;16.67;;;2.00;99.90;;;;;;4965152;28;20230;-81
2022/11/27 07:17:57;;;;;;;27.53;15.83;;;1.90;99.90;;;;;;4928067;28;20233;-84
2022/11/27 07:20:24;;;;;;;35.23;16.47;;;1.90;99.90;;;;;;4930535;28;20245;-81
2022/11/27 07:22:52;;;;;;;31.13;16.57;;;1.90;99.90;;;;;;4929197;28;20301;-84
2022/11/27 07:25:19;;;;;;;46.57;16.67;;;1.90;99.90;;;;;;4929664;28;20239;-81
2022/11/27 07:27:46;;;;;;;51.80;17.07;;;1.90;99.90;;;;;;4930700;28;20235;-82
2022/11/27 07:30:14;;;;;;;29.20;16.60;;;1.90;99.90;;;;;;4930925;28;20270;-81
2022/11/27 07:32:40;;;;;;;36.57;17.17;;;1.90;99.90;;;;;;4929885;28;20258;-82
2022/11/27 07:35:08;;;;;;;31.43;15.53;;;1.80;99.90;;;;;;4930308;28;20228;-82
2022/11/27 07:37:49;;;;;;;42.80;16.57;;;1.80;99.90;;;;;;4932278;28;20235;-83
2022/11/27 07:40:18;;;;;;;31.40;15.57;;;1.80;99.90;;;;;;4929657;28;20328;-83
2022/11/27 07:42:45;;;;;;;26.67;14.87;;;1.90;99.90;;;;;;4928894;28;20239;-84
2022/11/27 07:45:12;;;;;;;31.10;15.33;;;1.90;99.90;;;;;;4936368;28;20237;-81
2022/11/27 07:47:39;;;;;;;26.87;15.10;;;1.90;99.90;;;;;;4936634;28;20228;-83
2022/11/27 07:50:08;;;;;;;29.17;14.83;;;1.90;99.90;;;;;;4936640;28;20243;-82
2022/11/27 07:52:35;;;;;;;28.93;15.77;;;1.90;99.90;;;;;;4936804;28;20256;-83
2022/11/27 07:55:02;;;;;;;32.53;15.37;;;2.00;99.90;;;;;;4927518;28;20275;-81
2022/11/27 07:57:30;;;;;;;23.93;13.63;;;2.00;99.90;;;;;;5009619;28;20238;-82
2022/11/27 07:59:57;;;;;;;23.80;13.83;;;2.00;99.90;;;;;;4971900;28;20734;-81
2022/11/27 08:02:23;;;;;;;24.37;14.50;;;2.10;99.90;;;;;;4913885;28;21471;-80
2022/11/27 08:04:50;;;;;;;25.90;14.97;;;2.20;99.90;;;;;;5009181;28;20227;-80
2022/11/27 08:07:17;;;;;;;24.00;14.33;;;2.20;99.90;;;;;;5005083;28;20231;-82
2022/11/27 08:09:43;;;;;;;23.80;13.47;;;2.30;99.90;;;;;;4952096;28;20314;-80
2022/11/27 08:12:10;;;;;;;24.07;13.97;;;2.40;99.90;;;;;;4996515;28;20237;-80
2022/11/27 08:14:38;;;;;;;24.33;13.13;;;2.50;99.90;;;;;;5014204;28;20720;-82
2022/11/27 08:17:13;;;;;;;26.47;14.03;;;2.60;99.90;;;;;;5005445;28;20214;-84
2022/11/27 08:19:40;;;;;;;27.00;14.00;;;2.70;99.90;;;;;;4980799;28;20292;-84
2022/11/27 08:22:11;;;;;;;25.70;13.40;;;2.90;99.90;;;;;;5003119;28;20238;-84
2022/11/27 08:24:38;;;;;;;24.53;12.57;;;3.10;99.90;;;;;;4951734;28;20236;-82
2022/11/27 08:27:05;;;;;;;22.97;12.17;;;3.40;99.90;;;;;;4973153;28;20323;-81
2022/11/27 08:29:31;;;;;;;20.33;12.80;;;3.60;99.90;;;;;;5005860;28;20233;-84
2022/11/27 08:31:59;;;;;;;21.63;11.40;;;3.90;99.90;;;;;;4969654;28;20728;-85
2022/11/27 08:34:26;;;;;;;17.43;11.50;;;4.30;99.90;;;;;;4970290;28;20237;-82
2022/11/27 08:36:53;;;;;;;18.37;10.60;;;4.50;99.90;;;;;;5007626;28;20231;-85
2022/11/27 08:39:20;;;;;;;18.13;10.10;;;4.80;99.90;;;;;;5005459;28;20224;-85
2022/11/27 08:41:46;;;;;;;16.17;9.83;;;5.10;99.90;;;;;;5006248;28;20235;-84
2022/11/27 08:44:13;;;;;;;14.67;9.70;;;5.40;99.90;;;;;;4919120;28;20235;-83
2022/11/27 08:46:40;;;;;;;17.20;9.93;;;5.60;99.90;;;;;;4988483;28;20630;-79
2022/11/27 08:49:08;;;;;;;14.37;9.70;;;5.90;99.90;;;;;;4962621;28;20218;-82
2022/11/27 08:51:34;;;;;;;15.67;10.00;;;6.10;99.90;;;;;;5008955;28;20221;-83
2022/11/27 08:54:04;;;;;;;14.33;8.20;;;6.30;99.90;;;;;;4965567;28;20296;-80
2022/11/27 08:56:34;;;;;;;17.57;8.93;;;6.30;99.90;;;;;;4924274;28;20242;-82
2022/11/27 08:59:02;;;;;;;16.00;9.33;;;6.20;99.90;;;;;;4965039;28;20718;-80
2022/11/27 09:01:30;;;;;;;13.67;9.10;;;6.10;99.90;;;;;;4968994;28;20228;-83
2022/11/27 09:03:57;;;;;;;17.60;9.37;;;6.00;99.90;;;;;;4972064;28;20234;-83
2022/11/27 09:06:31;;;;;;;13.53;8.37;;;5.70;99.90;;;;;;4915592;28;20725;-79
2022/11/27 09:08:58;;;;;;;13.77;8.30;;;5.50;99.90;;;;;;4910141;28;20980;-83
2022/11/27 09:11:27;;;;;;;13.30;8.40;;;5.30;99.90;;;;;;4897586;28;21068;-80
2022/11/27 09:13:54;;;;;;;13.67;8.37;;;5.10;99.90;;;;;;4977512;28;20230;-78
2022/11/27 09:16:22;;;;;;;13.87;8.80;;;4.90;99.90;;;;;;4991545;28;20253;-78
2022/11/27 09:18:50;;;;;;;13.57;8.40;;;4.80;99.90;;;;;;4930289;28;20230;-79
2022/11/27 09:21:18;;;;;;;15.63;8.90;;;4.60;99.90;;;;;;4934595;28;20327;-78
2022/11/27 09:23:47;;;;;;;15.10;8.70;;;4.60;99.90;;;;;;4914141;28;20524;-78
2022/11/27 09:26:16;;;;;;;14.97;8.70;;;4.50;99.90;;;;;;4907558;28;20313;-78
2022/11/27 09:28:43;;;;;;;14.70;8.80;;;4.60;99.90;;;;;;4955246;28;20380;-78
2022/11/27 09:31:14;;;;;;;13.80;8.87;;;4.60;99.90;;;;;;5000409;28;20218;-78
2022/11/27 09:33:44;;;;;;;16.27;9.03;;;4.70;99.90;;;;;;5000184;28;20240;-78
2022/11/27 09:36:13;;;;;;;13.50;7.77;;;4.90;99.90;;;;;;5000165;28;20222;-78
2022/11/27 09:38:41;;;;;;;13.27;7.80;;;5.10;99.90;;;;;;5000486;28;20237;-78
2022/11/27 09:41:37;;;;;;;12.90;7.67;;;5.30;99.90;;;;;;5002113;28;20225;-78
2022/11/27 09:44:16;;;;;;;12.80;8.30;;;5.50;99.90;;;;;;4962759;28;20750;-78
2022/11/27 09:46:43;;;;;;;11.30;7.43;;;5.60;99.90;;;;;;4959822;28;20877;-78
2022/11/27 09:49:15;;;;;;;13.80;7.37;;;5.70;99.90;;;;;;4974606;28;20476;-78
2022/11/27 09:51:47;;;;;;;13.30;7.90;;;5.70;99.90;;;;;;4923054;28;20234;-78
2022/11/27 09:54:19;;;;;;;11.13;7.73;;;5.60;99.90;;;;;;4911390;28;20246;-78
2022/11/27 09:56:51;;;;;;;12.60;8.13;;;5.70;99.90;;;;;;4909071;28;20262;-78
2022/11/27 09:59:19;;;;;;;16.43;7.90;;;5.60;99.90;;;;;;4959128;28;20596;-78
2022/11/27 10:01:46;;;;;;;16.30;8.87;;;5.60;99.90;;;;;;4963231;28;20630;-78
2022/11/27 10:04:16;;;;;;;13.57;8.27;;;5.70;99.90;;;;;;4931316;28;20472;-78
2022/11/27 10:07:09;;;;;;;12.27;7.87;;;5.80;99.90;;;;;;4931519;28;20232;-82
2022/11/27 10:09:45;;;;;;;15.10;9.10;;;5.90;99.90;;;;;;4932511;28;20220;-81
2022/11/27 10:12:20;;;;;;;13.07;8.83;;;6.00;99.90;;;;;;4934850;28;20235;-80
2022/11/27 10:14:59;;;;;;;10.93;7.73;;;6.00;99.90;;;;;;5004346;28;20370;-80
2022/11/27 10:17:34;;;;;;;16.40;8.63;;;6.00;99.90;;;;;;4911011;28;20301;-78
2022/11/27 10:20:10;;;;;;;12.57;8.60;;;6.00;99.90;;;;;;4922571;28;20374;-78
2022/11/27 10:22:45;;;;;;;15.10;9.27;;;6.00;99.90;;;;;;4901348;28;20249;-80
2022/11/27 10:25:17;;;;;;;15.80;10.13;;;5.90;99.90;;;;;;4888511;28;20222;-79
2022/11/27 10:27:55;;;;;;;17.43;10.70;;;5.70;99.90;;;;;;4909739;28;20260;-79
2022/11/27 10:30:33;;;;;;;14.30;8.10;;;5.60;99.90;;;;;;4929816;28;20243;-80
2022/11/27 10:33:01;;;;;;;13.83;8.47;;;5.50;99.90;;;;;;4943199;28;20227;-80
2022/11/27 10:35:32;;;;;;;12.90;8.80;;;5.40;99.90;;;;;;4886268;28;20761;-79
2022/11/27 10:38:03;;;;;;;15.97;10.53;;;5.30;99.90;;;;;;4889378;28;20219;-79
2022/11/27 10:40:36;;;;;;;15.93;8.87;;;5.20;99.90;;;;;;5002802;28;20218;-79
2022/11/27 10:43:10;;;;;;;17.03;9.27;;;5.10;99.90;;;;;;4921761;28;20226;-80
2022/11/27 10:45:43;;;;;;;13.17;7.67;;;5.00;99.90;;;;;;4984799;28;20224;-80
2022/11/27 10:48:10;;;;;;;11.97;8.20;;;5.00;99.90;;;;;;5004323;28;20297;-79
2022/11/27 10:50:37;;;;;;;15.27;9.17;;;5.00;99.90;;;;;;4948194;28;20819;-79
2022/11/27 10:53:08;;;;;;;16.03;9.30;;;5.10;99.90;;;;;;4981410;28;20239;-80
2022/11/27 10:55:50;;;;;;;13.03;8.33;;;5.10;99.90;;;;;;4982978;28;20231;-79
2022/11/27 10:58:25;;;;;;;13.37;8.00;;;5.20;99.90;;;;;;4994244;28;20233;-79
2022/11/27 11:01:00;;;;;;;11.73;7.73;;;5.30;99.90;;;;;;5003878;28;20230;-80
2022/11/27 11:03:27;;;;;;;15.33;8.07;;;5.30;99.90;;;;;;4924578;28;1025958;-79
2022/11/27 11:06:02;;;;;;;15.40;8.73;;;5.40;99.90;;;;;;4932714;28;20219;-80
2022/11/27 11:08:29;;;;;;;15.10;9.17;;;5.40;99.90;;;;;;4904011;28;20262;-79
2022/11/27 11:10:59;;;;;;;15.13;9.17;;;5.40;99.90;;;;;;4980638;28;20290;-79
2022/11/27 11:13:29;;;;;;;29.10;20.50;;;5.50;99.90;;;;;;4919306;28;20235;-79
2022/11/27 11:15:58;;;;;;;13.63;8.80;;;5.50;99.90;;;;;;4940397;28;20653;-79
2022/11/27 11:18:27;;;;;;;12.40;8.73;;;5.50;99.90;;;;;;4946346;28;20310;-79
2022/11/27 11:20:57;;;;;;;12.40;8.77;;;5.50;99.90;;;;;;4910380;28;20226;-78
2022/11/27 11:23:29;;;;;;;15.13;9.03;;;5.60;99.90;;;;;;4999119;28;20242;-78
2022/11/27 11:26:01;;;;;;;14.90;9.50;;;5.60;99.90;;;;;;5010727;28;20259;-78
2022/11/27 11:28:30;;;;;;;16.00;9.10;;;5.60;99.90;;;;;;4914823;28;20228;-79
2022/11/27 11:31:02;;;;;;;15.67;7.60;;;5.60;99.90;;;;;;4971480;28;20224;-79
2022/11/27 11:33:29;;;;;;;14.20;9.23;;;5.60;99.90;;;;;;4944229;28;20230;-80
2022/11/27 11:36:06;;;;;;;15.13;9.83;;;5.60;99.90;;;;;;4941228;28;20226;-79
2022/11/27 11:38:33;;;;;;;12.10;8.07;;;5.50;99.90;;;;;;5002950;28;20295;-80
2022/11/27 11:41:03;;;;;;;14.13;8.77;;;5.50;99.90;;;;;;4967285;28;20548;-80
2022/11/27 11:43:34;;;;;;;12.40;9.03;;;5.50;99.90;;;;;;4947526;28;20747;-80
2022/11/27 11:46:17;;;;;;;14.00;9.13;;;5.40;99.90;;;;;;4897706;28;20239;-80
2022/11/27 11:48:54;;;;;;;13.47;8.33;;;5.40;99.90;;;;;;4977763;28;20596;-80
2022/11/27 11:51:27;;;;;;;14.87;8.83;;;5.40;99.90;;;;;;4974001;28;20270;-80
2022/11/27 11:54:05;;;;;;;12.80;8.03;;;5.40;99.90;;;;;;4904800;28;20865;-77
2022/11/27 11:56:37;;;;;;;14.40;8.73;;;5.40;99.90;;;;;;4927207;28;20254;-79
2022/11/27 11:59:15;;;;;;;12.47;8.50;;;5.40;99.90;;;;;;4996458;28;20311;-79
2022/11/27 12:01:57;;;;;;;13.57;8.30;;;5.30;99.90;;;;;;5002952;28;20658;-79
2022/11/27 12:04:43;;;;;;;15.30;8.77;;;5.30;99.90;;;;;;4999814;28;20942;-79
2022/11/27 12:07:20;;;;;;;14.47;8.30;;;5.30;99.90;;;;;;4955249;28;20247;-79
2022/11/27 12:09:57;;;;;;;11.53;8.03;;;5.30;99.90;;;;;;4918610;28;20812;-78
2022/11/27 12:12:45;;;;;;;14.33;8.77;;;5.30;99.90;;;;;;4979977;28;20735;-79
2022/11/27 12:15:23;;;;;;;13.03;9.23;;;5.30;99.90;;;;;;5016853;28;20235;-79
2022/11/27 12:17:59;;;;;;;12.17;8.10;;;5.30;99.90;;;;;;5005915;28;20240;-79
2022/11/27 12:20:32;;;;;;;15.03;8.70;;;5.30;99.90;;;;;;4923047;28;20233;-79
2022/11/27 12:23:23;;;;;;;13.23;8.70;;;5.30;99.90;;;;;;4996658;28;20871;-79
2022/11/27 12:25:58;;;;;;;13.03;8.60;;;5.30;99.90;;;;;;4886839;28;20272;-78
2022/11/27 12:28:50;;;;;;;15.97;8.90;;;5.30;99.90;;;;;;4884105;28;20293;-79
2022/11/27 12:31:31;;;;;;;18.47;8.80;;;5.30;99.90;;;;;;4900491;28;20288;-78
2022/11/27 12:34:03;;;;;;;14.07;8.67;;;5.40;99.90;;;;;;4980674;28;20222;-79
2022/11/27 12:36:53;;;;;;;10.27;8.03;;;5.40;99.90;;;;;;4923301;28;20220;-80
2022/11/27 12:39:25;;;;;;;13.87;9.10;;;5.40;99.90;;;;;;4988109;28;20728;-80
2022/11/27 12:42:05;;;;;;;16.17;8.63;;;5.50;99.90;;;;;;4905693;28;20222;-80
2022/11/27 12:44:43;;;;;;;12.23;7.33;;;5.50;99.90;;;;;;4940366;28;20231;-79
2022/11/27 12:47:16;;;;;;;13.57;8.37;;;5.50;99.90;;;;;;4947650;28;20296;-80
2022/11/27 12:49:46;;;;;;;13.40;7.63;;;5.50;99.90;;;;;;5003429;28;20675;-79
2022/11/27 12:52:18;;;;;;;13.63;8.77;;;5.50;99.90;;;;;;5001641;28;20225;-78
2022/11/27 12:54:50;;;;;;;12.47;8.03;;;5.40;99.90;;;;;;4974441;28;20233;-79
2022/11/27 12:57:21;;;;;;;14.87;11.23;;;5.50;99.90;;;;;;4907186;28;20234;-79